Time;durP1;ratioP1;P1;durP2;ratioP2;P2;SDS_P1;SDS_P2;PMS_P1;PMS_P2;Temp;Humidity;BMP_temperature;BMP_pressure;BME280_temperature;BME280_humidity;BME280_pressure;Samples;Min_cycle;Max_cycle;Signal;HPM_P1;HPM_P2
2023/06/27 00:02:12;;;;;;;47.78;27.00;;;;;;;29.59;72.74;100665.34;5061438;28;70030;-45
2023/06/27 00:04:43;;;;;;;52.28;26.38;;;;;;;29.65;73.49;100660.97;5059510;28;66277;-46
2023/06/27 00:07:15;;;;;;;61.25;28.05;;;;;;;29.48;73.63;100639.00;5059569;28;70110;-44
2023/06/27 00:09:46;;;;;;;63.97;27.50;;;;;;;29.70;74.35;100674.63;5056789;28;66167;-46
2023/06/27 00:12:18;;;;;;;56.80;28.17;;;;;;;29.75;74.03;100672.94;5040642;28;69566;-49
2023/06/27 00:14:49;;;;;;;;;;;;;;;29.58;74.08;100669.06;5057417;28;66024;-46
2023/06/27 00:17:22;;;;;;;56.42;25.73;;;;;;;29.64;73.89;100649.31;5059574;28;68619;-48
2023/06/27 00:19:57;;;;;;;52.35;24.17;;;;;;;29.81;73.37;100676.66;5056663;28;66203;-45
2023/06/27 00:22:29;;;;;;;43.15;24.50;;;;;;;29.80;73.43;100670.41;5059636;28;70047;-47
2023/06/27 00:25:00;;;;;;;43.77;25.13;;;;;;;29.90;73.35;100688.06;5053132;28;65966;-47
2023/06/27 00:27:31;;;;;;;49.05;24.20;;;;;;;29.94;73.45;100687.38;5058555;28;69603;-47
2023/06/27 00:30:02;;;;;;;54.47;25.20;;;;;;;29.93;74.19;100691.16;5055665;28;65221;-44
2023/06/27 00:32:34;;;;;;;55.15;25.80;;;;;;;29.97;74.25;100696.94;5057797;28;70048;-44
2023/06/27 00:35:06;;;;;;;50.00;27.67;;;;;;;30.04;73.45;100712.06;5042918;28;66888;-43
2023/06/27 00:37:37;;;;;;;40.22;27.73;;;;;;;30.07;73.76;100724.34;5040678;28;70073;-44
2023/06/27 00:40:09;;;;;;;48.10;27.10;;;;;;;30.11;73.96;100720.13;5049449;28;66780;-46
2023/06/27 00:42:40;;;;;;;41.05;27.00;;;;;;;29.81;74.13;100682.91;5053269;28;70911;-44
2023/06/27 00:45:11;;;;;;;44.00;27.67;;;;;;;30.12;74.85;100731.81;5041773;28;65985;-48
2023/06/27 00:47:42;;;;;;;29.80;22.67;;;;;;;30.18;71.33;100739.88;5057443;28;69898;-47
2023/06/27 00:50:14;;;;;;;29.73;20.83;;;;;;;30.15;70.43;100734.06;5032649;28;66960;-48
2023/06/27 00:52:47;;;;;;;24.48;19.02;;;;;;;30.25;70.38;100750.66;5041818;28;70151;-46
2023/06/27 00:55:20;;;;;;;23.38;19.40;;;;;;;30.27;69.82;100746.69;5058218;28;66953;-47
2023/06/27 00:57:53;;;;;;;24.60;18.88;;;;;;;30.13;69.72;100726.16;5048245;28;70662;-47
2023/06/27 01:00:24;;;;;;;19.90;17.70;;;;;;;30.32;68.90;100753.34;5042391;28;65554;-47
2023/06/27 01:02:55;;;;;;;22.63;18.30;;;;;;;30.25;68.89;100737.13;5041199;28;71410;-46
2023/06/27 01:05:27;;;;;;;19.63;17.47;;;;;;;30.35;68.81;100758.31;5060424;28;66066;-45
2023/06/27 01:08:10;;;;;;;;;;;;;;;30.05;70.65;100758.88;5042776;28;70847;-46
2023/06/27 01:10:53;;;;;;;17.88;15.98;;;;;;;30.24;68.52;100743.59;5056435;28;67248;-47
2023/06/27 01:13:33;;;;;;;23.98;18.27;;;;;;;30.26;67.74;100739.63;5058125;28;70361;-46
2023/06/27 01:16:06;;;;;;;25.52;18.35;;;;;;;30.46;68.11;100765.72;5031317;28;66717;-49
2023/06/27 01:18:41;;;;;;;21.63;17.98;;;;;;;30.48;67.74;100764.44;5041642;28;70315;-46
2023/06/27 01:21:12;;;;;;;18.55;16.70;;;;;;;30.48;67.33;100758.22;5051685;28;66370;-48
2023/06/27 01:23:55;;;;;;;22.20;18.05;;;;;;;30.46;67.47;100761.13;5042315;28;68902;-46
2023/06/27 01:26:27;;;;;;;19.27;17.08;;;;;;;30.53;67.83;100766.47;5057244;28;66664;-49
2023/06/27 01:28:58;;;;;;;18.77;16.88;;;;;;;30.53;67.68;100769.19;5051067;28;70893;-48
2023/06/27 01:31:47;;;;;;;21.15;16.73;;;;;;;30.56;67.26;100766.03;5055878;28;65607;-47
2023/06/27 01:34:33;;;;;;;18.30;16.15;;;;;;;30.53;67.08;100766.47;5058916;28;69411;-48
2023/06/27 01:37:10;;;;;;;17.17;15.55;;;;;;;30.61;66.60;100768.91;5040300;28;66370;-46
2023/06/27 01:39:57;;;;;;;16.98;15.43;;;;;;;30.38;67.01;100741.63;5057944;28;69148;-45
2023/06/27 01:42:34;;;;;;;17.35;14.65;;;;;;;30.54;66.46;100768.16;5037821;28;66727;-46
2023/06/27 01:45:06;;;;;;;16.17;14.63;;;;;;;30.60;66.62;100767.25;5055029;28;69116;-47
2023/06/27 01:47:41;;;;;;;18.13;15.02;;;;;;;30.42;66.56;100732.84;5051624;28;66904;-48
2023/06/27 01:50:13;;;;;;;16.58;15.13;;;;;;;30.69;66.42;100771.34;5055906;28;70157;-47
2023/06/27 01:52:44;;;;;;;;;;;;;;;30.42;67.61;100786.13;5039949;28;66727;-47
2023/06/27 01:55:15;;;;;;;15.57;14.30;;;;;;;30.68;66.14;100791.34;5042026;28;70181;-46
2023/06/27 01:57:46;;;;;;;15.05;13.82;;;;;;;30.77;66.30;100788.38;5059571;28;65861;-47
2023/06/27 02:00:18;;;;;;;15.73;14.13;;;;;;;30.79;65.79;100791.69;5042274;28;70386;-47
2023/06/27 02:02:50;;;;;;;15.45;14.15;;;;;;;30.83;65.59;100784.81;5063088;28;65512;-46
2023/06/27 02:05:21;;;;;;;15.10;13.65;;;;;;;30.84;65.69;100787.31;5058867;28;69097;-47
2023/06/27 02:07:53;;;;;;;14.30;13.23;;;;;;;30.66;65.78;100749.31;5044236;28;66727;-47
2023/06/27 02:10:26;;;;;;;15.23;13.82;;;;;;;30.88;65.61;100777.66;5055842;28;70155;-46
2023/06/27 02:12:58;;;;;;;15.40;13.90;;;;;;;30.68;65.43;100758.88;5038836;28;66221;-46
2023/06/27 02:15:30;;;;;;;14.90;13.70;;;;;;;30.93;65.47;100777.00;5042436;28;70393;-48
2023/06/27 02:18:05;;;;;;;15.25;13.90;;;;;;;30.96;65.12;100792.81;5050110;28;66116;-46
2023/06/27 02:20:37;;;;;;;14.30;13.27;;;;;;;30.98;65.10;100788.00;5053644;28;69223;-48
2023/06/27 02:23:07;;;;;;;13.27;12.35;;;;;;;30.60;64.90;100715.00;5042605;28;65735;-51
2023/06/27 02:25:39;;;;;;;15.20;13.77;;;;;;;31.02;65.14;100778.38;5060435;28;69807;-48
2023/06/27 02:28:10;;;;;;;13.93;12.75;;;;;;;30.94;65.06;100759.69;5047812;28;66061;-46
2023/06/27 02:30:42;;;;;;;14.15;13.02;;;;;;;31.09;64.73;100770.16;5059649;28;71449;-48
2023/06/27 02:33:15;;;;;;;14.23;13.07;;;;;;;30.99;64.54;100757.16;5047865;28;65888;-46
2023/06/27 02:35:46;;;;;;;13.57;12.55;;;;;;;31.12;64.89;100759.72;5060077;28;71077;-47
2023/06/27 02:38:19;;;;;;;15.77;14.15;;;;;;;31.16;64.46;100770.94;5066126;28;66336;-46
2023/06/27 02:40:51;;;;;;;14.68;13.32;;;;;;;31.08;64.76;100755.78;5058038;28;69302;-47
2023/06/27 02:43:22;;;;;;;13.77;12.73;;;;;;;31.11;64.44;100758.03;5059749;28;66250;-46
2023/06/27 02:45:54;;;;;;;13.60;12.40;;;;;;;31.26;64.09;100781.22;5065263;27;70791;-48
2023/06/27 02:48:25;;;;;;;13.68;12.48;;;;;;;31.27;64.06;100766.66;5060330;28;66063;-48
2023/06/27 02:50:56;;;;;;;12.77;11.97;;;;;;;31.01;64.04;100725.25;5059619;28;70092;-49
2023/06/27 02:53:27;;;;;;;13.85;12.57;;;;;;;31.29;63.76;100759.13;5040225;28;65822;-48
2023/06/27 02:56:02;;;;;;;13.43;12.33;;;;;;;31.36;63.68;100766.13;5058330;28;70239;-47
2023/06/27 02:58:36;;;;;;;14.45;13.32;;;;;;;31.35;63.64;100760.94;5040788;28;65626;-47
2023/06/27 03:01:08;;;;;;;;;;;;;;;31.14;63.99;100768.44;5024985;28;69137;-48
2023/06/27 03:03:43;;;;;;;13.43;12.32;;;;;;;31.28;63.54;100743.91;5041333;28;66744;-48
2023/06/27 03:06:19;;;;;;;13.82;12.68;;;;;;;31.52;63.41;100769.31;5044217;28;70404;-47
2023/06/27 03:08:50;;;;;;;13.65;12.68;;;;;;;31.55;63.25;100764.25;5042395;28;66548;-47
2023/06/27 03:11:21;;;;;;;12.98;12.07;;;;;;;31.55;63.23;100758.81;5058998;28;70111;-46
2023/06/27 03:13:53;;;;;;;13.57;12.40;;;;;;;31.61;63.27;100759.78;5041359;28;67402;-48
2023/06/27 03:16:24;;;;;;;13.97;12.53;;;;;;;31.56;62.86;100748.78;5058832;28;70172;-47
2023/06/27 03:18:55;;;;;;;13.68;12.13;;;;;;;31.48;63.09;100727.41;5059416;28;66003;-48
2023/06/27 03:21:26;;;;;;;13.50;12.35;;;;;;;31.53;62.88;100728.38;5062966;28;69974;-47
2023/06/27 03:23:57;;;;;;;14.82;13.40;;;;;;;31.74;62.96;100756.09;5069527;28;65568;-47
2023/06/27 03:26:31;;;;;;;13.48;12.52;;;;;;;31.79;62.77;100750.81;5040214;28;70328;-47
2023/06/27 03:29:03;;;;;;;13.18;12.15;;;;;;;31.77;62.48;100744.78;5042335;28;66486;-49
2023/06/27 03:31:34;;;;;;;13.03;12.03;;;;;;;31.84;62.55;100753.63;5036199;28;69874;-48
2023/06/27 03:34:06;;;;;;;13.45;12.35;;;;;;;31.69;62.43;100720.69;5052688;28;65762;-46
2023/06/27 03:36:37;;;;;;;12.33;11.47;;;;;;;31.91;62.39;100743.56;5050220;28;69151;-49
2023/06/27 03:39:08;;;;;;;12.90;11.90;;;;;;;31.91;62.52;100732.72;5065822;28;66476;-46
2023/06/27 03:41:40;;;;;;;13.57;12.48;;;;;;;31.93;62.14;100733.31;5046778;28;69943;-47
2023/06/27 03:44:11;;;;;;;12.75;11.75;;;;;;;31.97;62.47;100737.22;5042994;28;65102;-48
2023/06/27 03:46:44;;;;;;;12.88;11.63;;;;;;;31.86;61.98;100710.84;5044371;28;69691;-47
2023/06/27 03:49:15;;;;;;;13.48;12.52;;;;;;;31.99;62.17;100732.38;5044560;28;65886;-48
2023/06/27 03:51:46;;;;;;;11.97;11.10;;;;;;;31.90;61.96;100706.63;5043099;28;69440;-47
2023/06/27 03:54:17;;;;;;;11.97;11.07;;;;;;;32.07;61.93;100735.81;5066683;28;66257;-46
2023/06/27 03:56:49;;;;;;;13.13;12.18;;;;;;;32.10;61.61;100732.66;5047688;28;69951;-48
2023/06/27 03:59:21;;;;;;;13.02;12.10;;;;;;;31.12;61.69;100575.47;5061896;28;66352;-47
2023/06/27 04:01:53;;;;;;;11.90;11.05;;;;;;;32.16;61.71;100734.44;5041705;28;69650;-48
2023/06/27 04:04:25;;;;;;;12.07;11.18;;;;;;;32.03;61.53;100711.84;5042405;28;66146;-48
2023/06/27 04:06:56;;;;;;;12.20;11.30;;;;;;;32.18;61.51;100732.28;5060094;28;69824;-46
2023/06/27 04:09:27;;;;;;;13.27;11.98;;;;;;;32.21;61.61;100729.16;5069627;28;66262;-46
2023/06/27 04:11:59;;;;;;;12.23;11.43;;;;;;;32.22;61.46;100714.50;5063412;28;70698;-47
2023/06/27 04:14:31;;;;;;;10.95;10.25;;;;;;;32.25;61.34;100714.84;5061805;28;65898;-47
2023/06/27 04:17:02;;;;;;;12.60;11.70;;;;;;;32.27;61.43;100711.91;5061423;28;69193;-47
2023/06/27 04:19:33;;;;;;;11.98;11.13;;;;;;;32.30;61.21;100716.06;5041888;28;66223;-48
2023/06/27 04:22:06;;;;;;;12.05;11.25;;;;;;;32.32;61.19;100709.34;5042196;28;69747;-47
2023/06/27 04:24:38;;;;;;;11.75;10.95;;;;;;;32.34;61.18;100701.75;5047612;28;66153;-49
2023/06/27 04:27:09;;;;;;;12.17;11.20;;;;;;;32.35;61.26;100702.63;5064553;28;70662;-48
2023/06/27 04:29:40;;;;;;;12.85;11.77;;;;;;;32.35;61.15;100698.00;5056647;28;66068;-46
2023/06/27 04:32:12;;;;;;;11.37;10.53;;;;;;;32.38;61.40;100691.28;5061163;28;70065;-48
2023/06/27 04:34:42;;;;;;;11.63;10.73;;;;;;;32.37;61.09;100679.56;5060021;28;66307;-46
2023/06/27 04:37:18;;;;;;;11.43;10.63;;;;;;;32.38;60.97;100675.81;5063381;28;69533;-46
2023/06/27 04:39:49;;;;;;;10.68;9.98;;;;;;;32.35;61.03;100660.00;5058758;28;65479;-49
2023/06/27 04:42:21;;;;;;;10.73;10.13;;;;;;;32.46;60.80;100671.97;5062100;28;70166;-47
2023/06/27 04:44:55;;;;;;;11.20;10.40;;;;;;;32.48;60.90;100670.66;5062273;28;66662;-46
2023/06/27 04:47:26;;;;;;;11.02;10.30;;;;;;;32.45;60.94;100656.69;5061414;28;70564;-49
2023/06/27 04:49:57;;;;;;;10.68;9.95;;;;;;;32.53;60.84;100669.13;5058541;28;67183;-48
2023/06/27 04:52:29;;;;;;;10.80;10.07;;;;;;;32.55;60.69;100664.28;5059981;28;69806;-48
2023/06/27 04:55:00;;;;;;;10.40;9.60;;;;;;;32.55;60.55;100648.00;5060258;28;66411;-46
2023/06/27 04:57:31;;;;;;;10.60;9.70;;;;;;;32.60;60.41;100656.25;5061438;28;71925;-49
2023/06/27 05:00:05;;;;;;;10.20;9.50;;;;;;;32.64;60.43;100669.09;5060712;28;66541;-48
2023/06/27 05:02:37;;;;;;;10.63;9.68;;;;;;;32.66;60.20;100660.72;5052381;28;70644;-47
2023/06/27 05:05:18;;;;;;;9.13;8.52;;;;;;;32.63;60.37;100639.47;5063133;28;66191;-55
2023/06/27 05:07:49;;;;;;;9.10;8.50;;;;;;;32.70;60.22;100640.16;5062559;28;69790;-46
2023/06/27 05:10:21;;;;;;;9.30;8.55;;;;;;;32.63;60.02;100623.19;5061684;28;65732;-48
2023/06/27 05:12:51;;;;;;;10.13;9.43;;;;;;;32.61;60.24;100614.44;5062925;28;69739;-49
2023/06/27 05:15:23;;;;;;;9.68;9.02;;;;;;;32.77;60.14;100629.19;5062437;28;66763;-47
2023/06/27 05:18:16;;;;;;;9.57;8.85;;;;;;;32.69;59.85;100628.47;5060625;28;70387;-49
2023/06/27 05:20:47;;;;;;;9.32;8.73;;;;;;;32.82;60.09;100616.53;5039458;28;66184;-47
2023/06/27 05:23:20;;;;;;;9.80;9.10;;;;;;;32.81;59.79;100609.44;5061886;28;70584;-48
2023/06/27 05:25:52;;;;;;;10.02;9.07;;;;;;;32.87;59.83;100608.47;5043277;28;65289;-49
2023/06/27 05:28:22;;;;;;;9.02;8.45;;;;;;;32.90;59.78;100604.44;5061070;28;70069;-47
2023/06/27 05:30:55;;;;;;;9.70;9.02;;;;;;;32.52;59.91;100534.44;5064112;28;65774;-48
2023/06/27 05:33:26;;;;;;;9.25;8.55;;;;;;;32.90;59.59;100590.88;5065255;28;69566;-48
2023/06/27 05:35:57;;;;;;;8.67;8.20;;;;;;;32.92;59.58;100586.03;5060227;28;66744;-48
2023/06/27 05:38:28;;;;;;;8.75;8.20;;;;;;;32.86;59.54;100574.22;5062390;28;69969;-49
2023/06/27 05:41:01;;;;;;;9.10;8.33;;;;;;;32.91;59.54;100577.06;5060168;28;66743;-49
2023/06/27 05:43:33;;;;;;;9.48;8.80;;;;;;;32.93;59.41;100574.94;5060913;28;70452;-50
2023/06/27 05:46:04;;;;;;;9.77;8.98;;;;;;;33.05;59.03;100590.38;5056171;28;66316;-48
2023/06/27 05:48:35;;;;;;;9.80;9.10;;;;;;;32.95;59.31;100566.50;5040100;28;68975;-50
2023/06/27 05:51:07;;;;;;;9.33;8.63;;;;;;;33.05;59.59;100571.38;5061083;28;66338;-47
2023/06/27 05:53:39;;;;;;;10.93;9.27;;;;;;;33.05;59.74;100560.50;5059931;28;70041;-50
2023/06/27 05:56:10;;;;;;;;;;;;;;;32.82;59.85;100564.91;5061570;28;66555;-46
2023/06/27 05:58:41;;;;;;;9.32;8.50;;;;;;;33.10;59.30;100552.44;5060552;28;70392;-50
2023/06/27 06:01:12;;;;;;;9.27;8.57;;;;;;;33.13;59.31;100557.41;5043097;28;64992;-47
2023/06/27 06:03:43;;;;;;;10.32;8.43;;;;;;;32.96;58.91;100518.44;5060350;28;70060;-50
2023/06/27 06:06:15;;;;;;;9.18;8.45;;;;;;;33.05;59.23;100514.31;5058908;28;66112;-48
2023/06/27 06:08:46;;;;;;;9.05;8.35;;;;;;;33.19;58.94;100533.84;5060352;28;69994;-50
2023/06/27 06:11:17;;;;;;;8.90;8.03;;;;;;;33.22;59.07;100528.75;5049220;28;67307;-49
2023/06/27 06:13:48;;;;;;;9.40;8.70;;;;;;;33.23;58.95;100519.50;5059686;28;69926;-48
2023/06/27 06:16:19;;;;;;;8.68;7.93;;;;;;;33.28;58.84;100516.06;5056839;28;65945;-48
2023/06/27 06:18:50;;;;;;;8.48;7.88;;;;;;;33.23;58.63;100496.94;5062342;28;70352;-49
2023/06/27 06:21:21;;;;;;;7.93;7.50;;;;;;;33.30;58.90;100503.88;5046759;28;65996;-48
2023/06/27 06:23:52;;;;;;;9.30;8.60;;;;;;;33.33;58.62;100491.69;5064776;28;69442;-50
2023/06/27 06:26:23;;;;;;;8.53;8.03;;;;;;;33.40;58.78;100486.06;5060527;28;66236;-47
2023/06/27 06:28:54;;;;;;;7.85;7.22;;;;;;;33.30;58.46;100459.56;5060346;28;69018;-49
2023/06/27 06:31:25;;;;;;;8.57;7.97;;;;;;;33.29;58.43;100447.88;5058621;28;66573;-49
2023/06/27 06:33:57;;;;;;;8.35;7.75;;;;;;;33.51;58.40;100472.38;5065129;28;70397;-49
2023/06/27 06:36:28;;;;;;;7.85;7.45;;;;;;;33.43;58.45;100447.50;5059715;28;65347;-49
2023/06/27 06:38:59;;;;;;;7.88;7.25;;;;;;;33.58;58.31;100464.09;5061610;28;69583;-50
2023/06/27 06:41:30;;;;;;;8.73;8.13;;;;;;;33.42;58.33;100429.56;5060073;28;66006;-49
2023/06/27 06:44:03;;;;;;;8.60;7.97;;;;;;;33.62;58.24;100457.09;5054897;28;69610;-50
2023/06/27 06:46:35;;;;;;;8.53;7.77;;;;;;;33.66;58.56;100458.25;5057446;28;65768;-50
2023/06/27 06:49:06;;;;;;;;;;;;;;;33.41;58.59;100450.50;5058944;28;70624;-48
2023/06/27 06:51:37;;;;;;;7.97;7.47;;;;;;;33.69;58.39;100441.44;5060895;28;66462;-49
2023/06/27 06:54:07;;;;;;;7.90;7.37;;;;;;;33.66;58.02;100424.78;5061844;28;70894;-48
2023/06/27 06:56:38;;;;;;;8.23;7.73;;;;;;;33.77;58.11;100438.28;5064612;28;64834;-49
2023/06/27 06:59:09;;;;;;;8.15;7.38;;;;;;;33.72;58.05;100419.16;5062648;28;70170;-50
2023/06/27 07:01:41;;;;;;;7.57;7.17;;;;;;;33.77;58.20;100408.34;5064440;28;66375;-49
2023/06/27 07:04:12;;;;;;;7.65;7.15;;;;;;;33.84;57.79;100412.78;5062465;28;68857;-50
2023/06/27 07:06:43;;;;;;;7.40;6.90;;;;;;;33.87;57.99;100410.38;5069366;28;65302;-50
2023/06/27 07:09:14;;;;;;;7.65;7.07;;;;;;;33.98;57.74;100419.50;5071494;28;69943;-49
2023/06/27 07:11:47;;;;;;;7.47;7.00;;;;;;;34.00;57.80;100410.00;5063265;28;66531;-50
2023/06/27 07:14:18;;;;;;;7.68;6.95;;;;;;;34.04;57.67;100410.31;5061099;28;69359;-49
2023/06/27 07:16:49;;;;;;;7.03;6.53;;;;;;;34.06;57.46;100405.47;5046341;28;66256;-48
2023/06/27 07:19:21;;;;;;;8.75;7.30;;;;;;;33.98;57.18;100389.56;5039059;28;70292;-47
2023/06/27 07:21:52;;;;;;;8.02;7.43;;;;;;;33.97;57.24;100380.59;5041303;28;65634;-48
2023/06/27 07:24:24;;;;;;;7.22;6.82;;;;;;;34.10;57.12;100393.03;5039787;28;70450;-48
2023/06/27 07:26:55;;;;;;;6.97;6.30;;;;;;;34.13;56.98;100402.56;5042948;28;66766;-48
2023/06/27 07:29:26;;;;;;;7.90;7.25;;;;;;;34.14;57.12;100394.16;5042107;28;70276;-48
2023/06/27 07:31:57;;;;;;;6.57;6.18;;;;;;;34.13;56.83;100387.06;5043796;28;65671;-50
2023/06/27 07:34:29;;;;;;;7.35;6.95;;;;;;;34.10;57.30;100373.97;5034730;28;70157;-47
2023/06/27 07:37:00;;;;;;;7.35;6.85;;;;;;;34.18;57.04;100389.81;5039622;28;65646;-48
2023/06/27 07:39:31;;;;;;;7.35;6.85;;;;;;;34.18;56.65;100400.72;5043026;28;69946;-49
2023/06/27 07:42:03;;;;;;;7.93;7.43;;;;;;;34.18;57.18;100402.63;5040490;28;66004;-50
2023/06/27 07:44:36;;;;;;;7.88;7.38;;;;;;;34.21;56.94;100405.69;5044829;28;69950;-47
2023/06/27 07:47:08;;;;;;;7.25;6.80;;;;;;;34.21;56.90;100413.84;5042646;28;66407;-47
2023/06/27 07:49:39;;;;;;;7.72;7.28;;;;;;;34.28;56.95;100412.81;5040817;28;70582;-48
2023/06/27 07:52:11;;;;;;;7.50;7.00;;;;;;;34.27;56.96;100425.63;5041965;28;65985;-50
2023/06/27 07:54:42;;;;;;;7.72;7.03;;;;;;;34.27;57.47;100431.06;5041451;28;70607;-48
2023/06/27 07:57:13;;;;;;;8.52;7.82;;;;;;;34.28;57.64;100443.59;5042685;28;65432;-47
2023/06/27 07:59:44;;;;;;;8.77;7.40;;;;;;;34.14;57.67;100443.16;5046881;28;69317;-48
2023/06/27 08:02:16;;;;;;;8.25;7.50;;;;;;;34.09;58.70;100453.97;5043493;28;67110;-47
2023/06/27 08:04:47;;;;;;;;;;;;;;;33.97;59.83;100515.81;5041365;28;69291;-47
2023/06/27 08:07:18;;;;;;;8.68;7.60;;;;;;;34.19;59.14;100543.94;5041932;28;66251;-49
2023/06/27 08:09:49;;;;;;;8.07;7.45;;;;;;;34.17;59.50;100548.81;5037805;28;69516;-47
2023/06/27 08:12:21;;;;;;;8.23;7.32;;;;;;;33.97;59.72;100502.22;5038657;28;66718;-44
2023/06/27 08:14:52;;;;;;;7.90;7.25;;;;;;;34.01;60.81;100501.44;5037568;28;71952;-45
2023/06/27 08:17:23;;;;;;;7.10;6.50;;;;;;;33.94;61.77;100495.38;5037364;28;65520;-47
2023/06/27 08:19:55;;;;;;;7.57;7.00;;;;;;;34.00;62.33;100485.38;5055361;28;69976;-45
2023/06/27 08:22:26;;;;;;;6.72;5.25;;;;;;;33.99;61.94;100467.41;5059284;28;67022;-42
2023/06/27 08:25:02;;;;;;;6.50;5.90;;;;;;;33.98;61.28;100438.56;5058674;28;44697;-45
2023/06/27 08:27:34;;;;;;;5.60;5.20;;;;;;;33.95;61.43;100429.00;5059119;28;65762;-47
2023/06/27 08:30:07;;;;;;;6.32;5.82;;;;;;;33.88;62.22;100433.81;5058020;28;70304;-45
2023/06/27 08:32:38;;;;;;;6.10;5.60;;;;;;;33.88;62.11;100432.97;5061025;28;67039;-45
2023/06/27 08:35:09;;;;;;;6.50;6.00;;;;;;;33.83;61.83;100424.75;5058730;28;70214;-47
2023/06/27 08:37:40;;;;;;;6.63;6.03;;;;;;;33.78;62.94;100420.88;5061155;28;66498;-50
2023/06/27 08:40:20;;;;;;;5.55;5.15;;;;;;;33.69;62.62;100403.34;5071661;28;69157;-47
2023/06/27 08:42:51;;;;;;;5.90;5.20;;;;;;;33.70;62.20;100394.09;5062714;28;65275;-47
2023/06/27 08:45:23;;;;;;;5.22;4.82;;;;;;;33.72;62.21;100399.31;5070040;28;69726;-46
2023/06/27 08:47:55;;;;;;;5.70;5.30;;;;;;;33.64;61.99;100389.69;5045648;28;66299;-46
2023/06/27 08:50:26;;;;;;;;;;;;;;;33.32;62.98;100395.72;5060388;28;70411;-46
2023/06/27 08:52:59;;;;;;;5.50;5.10;;;;;;;33.52;62.68;100378.06;5056800;28;66611;-47
2023/06/27 08:55:58;;;;;;;5.80;5.25;;;;;;;33.40;63.22;100372.69;5039420;28;68580;-48
2023/06/27 08:58:36;;;;;;;6.32;5.82;;;;;;;33.48;63.21;100374.19;5058375;28;67481;-48
2023/06/27 09:01:09;;;;;;;5.93;5.30;;;;;;;33.41;63.71;100379.81;5057086;28;70254;-47
2023/06/27 09:03:41;;;;;;;6.20;5.80;;;;;;;33.38;63.41;100380.31;5060446;28;66579;-48
2023/06/27 09:06:14;;;;;;;6.75;6.00;;;;;;;33.36;62.95;100388.69;5059350;28;70428;-46
2023/06/27 09:08:45;;;;;;;6.25;5.47;;;;;;;33.36;62.64;100391.41;5060795;28;66187;-47
2023/06/27 09:11:17;;;;;;;5.63;5.25;;;;;;;33.34;62.31;100384.59;5061027;28;69197;-47
2023/06/27 09:13:48;;;;;;;5.05;4.65;;;;;;;33.12;63.10;100354.63;5061723;28;66698;-49
2023/06/27 09:16:19;;;;;;;4.88;4.57;;;;;;;33.19;62.70;100362.63;5058628;28;70591;-48
2023/06/27 09:18:50;;;;;;;5.90;5.50;;;;;;;33.22;62.61;100365.66;5062977;28;65660;-50
2023/06/27 09:21:25;;;;;;;5.40;5.10;;;;;;;33.28;62.09;100375.53;5060704;28;70495;-53
2023/06/27 09:24:07;;;;;;;4.90;4.50;;;;;;;33.26;62.17;100372.22;5062074;28;66329;-49
2023/06/27 09:26:38;;;;;;;6.13;4.97;;;;;;;33.24;62.20;100377.13;5059102;28;70006;-50
2023/06/27 09:29:09;;;;;;;6.65;6.15;;;;;;;32.99;63.51;100365.78;5058532;28;66898;-48
2023/06/27 09:31:40;;;;;;;6.03;5.63;;;;;;;33.01;65.13;100390.84;5053785;28;70529;-49
2023/06/27 09:34:12;;;;;;;7.28;6.65;;;;;;;32.80;65.90;100363.31;5053831;28;65555;-53
2023/06/27 09:36:43;;;;;;;7.40;6.80;;;;;;;32.88;66.58;100397.41;5057084;28;69753;-51
2023/06/27 09:39:17;;;;;;;8.38;7.55;;;;;;;32.71;67.06;100392.78;5056112;28;66616;-51
2023/06/27 09:41:50;;;;;;;15.02;7.22;;;;;;;32.79;67.35;100421.44;5050090;28;70026;-53
2023/06/27 09:44:24;;;;;;;21.27;7.35;;;;;;;32.21;68.05;100333.75;5057934;28;66222;-54
2023/06/27 09:46:56;;;;;;;15.15;7.90;;;;;;;32.76;68.47;100427.34;5056449;28;69361;-51
2023/06/27 09:49:30;;;;;;;16.40;7.50;;;;;;;32.74;69.03;100432.22;5057584;28;66563;-49
2023/06/27 09:52:04;;;;;;;29.33;8.52;;;;;;;32.68;69.19;100419.59;5055464;28;70304;-51
2023/06/27 09:54:44;;;;;;;11.80;7.63;;;;;;;32.57;69.87;100413.16;5054184;28;66111;-51
2023/06/27 09:57:21;;;;;;;14.32;8.38;;;;;;;32.67;70.09;100439.69;5053088;28;70459;-51
2023/06/27 09:59:58;;;;;;;24.48;8.32;;;;;;;32.46;70.10;100406.72;5054099;28;65672;-51
2023/06/27 10:02:30;;;;;;;13.32;7.25;;;;;;;32.66;70.51;100446.19;5053211;28;69131;-50
2023/06/27 10:05:03;;;;;;;9.70;8.57;;;;;;;32.65;70.50;100452.66;5056113;28;65130;-50
2023/06/27 10:07:35;;;;;;;9.10;7.45;;;;;;;32.65;70.48;100458.94;5054277;28;69857;-52
2023/06/27 10:10:07;;;;;;;14.57;9.07;;;;;;;31.85;70.94;100332.19;5042825;28;65666;-54
2023/06/27 10:12:39;;;;;;;9.38;7.80;;;;;;;32.56;70.94;100444.09;5057965;28;69499;-51
2023/06/27 10:15:11;;;;;;;8.20;7.40;;;;;;;32.60;71.06;100449.88;5058279;28;66703;-51
2023/06/27 10:17:43;;;;;;;8.63;7.72;;;;;;;32.54;71.26;100446.25;5058755;28;69827;-50
2023/06/27 10:20:14;;;;;;;10.05;7.13;;;;;;;32.66;71.33;100460.59;5059604;28;66565;-47
2023/06/27 10:22:47;;;;;;;10.07;8.23;;;;;;;32.66;71.76;100462.47;5053541;28;70137;-47
2023/06/27 10:25:20;;;;;;;7.70;6.85;;;;;;;32.63;71.48;100457.53;5058875;28;65265;-50
2023/06/27 10:28:03;;;;;;;9.77;7.55;;;;;;;32.53;71.88;100438.31;5058761;28;70080;-52
2023/06/27 10:30:54;;;;;;;8.30;6.53;;;;;;;32.60;71.63;100455.31;5048530;28;65684;-49
2023/06/27 10:33:31;;;;;;;10.35;7.63;;;;;;;32.65;71.75;100455.38;5062131;28;69956;-50
2023/06/27 10:36:09;;;;;;;13.82;7.28;;;;;;;32.13;71.92;100361.25;5055244;28;66418;-48
2023/06/27 10:38:46;;;;;;;10.05;7.72;;;;;;;32.67;72.54;100455.97;5047783;28;69626;-50
2023/06/27 10:41:33;;;;;;;15.00;8.75;;;;;;;32.65;72.48;100455.38;5056770;28;66844;-52
2023/06/27 10:44:10;;;;;;;10.88;9.02;;;;;;;32.61;72.95;100467.81;5054453;28;71435;-51
2023/06/27 10:46:41;;;;;;;9.57;8.68;;;;;;;32.60;73.03;100482.47;5057570;28;66343;-50
2023/06/27 10:49:13;;;;;;;12.63;8.43;;;;;;;32.60;72.76;100487.91;5058570;28;70373;-49
2023/06/27 10:51:47;;;;;;;13.52;8.57;;;;;;;32.57;72.56;100488.34;5054491;28;65560;-51
2023/06/27 10:54:19;;;;;;;7.95;7.28;;;;;;;32.58;72.71;100496.25;5056310;28;69987;-51
2023/06/27 10:56:53;;;;;;;8.98;8.15;;;;;;;32.51;72.80;100500.19;5060716;28;66233;-51
2023/06/27 10:59:25;;;;;;;9.73;8.05;;;;;;;32.55;72.95;100496.75;5059094;28;69904;-49
2023/06/27 11:02:06;;;;;;;13.45;7.93;;;;;;;32.55;72.95;100518.47;5059219;28;66329;-52
2023/06/27 11:04:44;;;;;;;9.75;8.85;;;;;;;32.53;73.33;100498.06;5060790;28;70121;-50
2023/06/27 11:07:17;;;;;;;9.15;8.45;;;;;;;32.40;73.22;100486.38;5056457;28;66532;-51
2023/06/27 11:09:56;;;;;;;13.93;8.63;;;;;;;32.53;73.46;100498.06;5059210;28;70426;-53
2023/06/27 11:12:33;;;;;;;13.80;9.38;;;;;;;31.90;73.28;100400.09;5059050;28;66512;-52
2023/06/27 11:15:05;;;;;;;11.05;9.80;;;;;;;32.41;73.30;100479.88;5056401;28;70323;-49
2023/06/27 11:17:38;;;;;;;;;;;;;;;32.31;74.10;100498.66;5050158;28;66085;-51
2023/06/27 11:20:10;;;;;;;9.68;8.98;;;;;;;32.33;73.62;100482.97;5060801;28;70952;-49
2023/06/27 11:22:41;;;;;;;9.98;9.13;;;;;;;32.46;73.99;100518.03;5057222;28;65381;-52
2023/06/27 11:25:17;;;;;;;12.00;9.63;;;;;;;32.50;73.93;100537.38;5059909;28;70268;-51
2023/06/27 11:27:55;;;;;;;10.90;9.63;;;;;;;32.45;73.82;100535.31;5037545;28;66033;-50
2023/06/27 11:30:33;;;;;;;11.27;9.93;;;;;;;32.48;74.08;100529.47;5057997;28;70345;-52
2023/06/27 11:33:04;;;;;;;12.15;10.88;;;;;;;32.41;74.33;100517.06;5057162;28;65518;-49
2023/06/27 11:35:36;;;;;;;;;;;;;;;32.30;75.00;100543.16;5059850;28;69796;-51
2023/06/27 11:38:08;;;;;;;12.65;11.52;;;;;;;32.35;74.70;100535.13;5057351;28;66434;-49
2023/06/27 11:40:48;;;;;;;12.77;11.55;;;;;;;32.44;74.60;100570.88;5062456;28;70257;-52
2023/06/27 11:43:20;;;;;;;13.52;12.32;;;;;;;32.40;74.96;100580.53;5065695;28;64853;-50
2023/06/27 11:45:52;;;;;;;16.35;13.52;;;;;;;32.45;75.27;100611.34;5061849;28;69641;-50